Time;durP1;ratioP1;P1;durP2;ratioP2;P2;SDS_P1;SDS_P2;PMS_P1;PMS_P2;Temp;Humidity;BMP_temperature;BMP_pressure;BME280_temperature;BME280_humidity;BME280_pressure;Samples;Min_cycle;Max_cycle;Signal;HPM_P1;HPM_P2
2023/01/19 00:00:17;;;;;;;0.80;0.60;;;;;;;-0.32;87.82;98912.94;5071016;28;20210;-73
2023/01/19 00:02:44;;;;;;;0.57;0.53;;;;;;;-0.28;88.78;98907.84;5071014;28;20178;-73
2023/01/19 00:05:10;;;;;;;0.40;0.40;;;;;;;-0.30;88.74;98908.09;5070770;28;20190;-72
2023/01/19 00:07:35;;;;;;;1.97;1.87;;;;;;;-0.29;88.61;98907.00;5071142;28;20427;-73
2023/01/19 00:10:00;;;;;;;1.57;1.40;;;;;;;-0.33;89.26;98912.13;5069604;28;20217;-72
2023/01/19 00:12:26;;;;;;;0.10;0.10;;;;;;;-0.22;89.11;98909.41;5070636;28;20196;-73
2023/01/19 00:14:51;;;;;;;0.47;0.43;;;;;;;-0.27;88.58;98914.81;5070562;28;20296;-72
2023/01/19 00:17:16;;;;;;;1.57;1.47;;;;;;;-0.24;88.85;98903.50;5070204;28;20178;-73
2023/01/19 00:19:42;;;;;;;0.27;0.27;;;;;;;-0.31;88.72;98903.81;5070724;28;20254;-73
2023/01/19 00:22:07;;;;;;;0.87;0.87;;;;;;;-0.26;89.28;98901.13;5070619;28;20643;-74
2023/01/19 00:24:32;;;;;;;0.97;0.30;;;;;;;-0.27;88.81;98896.81;5070501;28;20186;-73
2023/01/19 00:26:58;;;;;;;1.10;1.10;;;;;;;-0.23;88.81;98895.19;5070727;28;20173;-73
2023/01/19 00:29:24;;;;;;;5.93;1.67;;;;;;;-0.26;88.90;98893.06;5070632;28;20174;-73
2023/01/19 00:31:49;;;;;;;1.07;0.27;;;;;;;-0.24;89.28;98890.91;5070904;28;20502;-72
2023/01/19 00:34:15;;;;;;;1.90;1.30;;;;;;;-0.21;88.62;98903.75;5070323;28;20682;-73
2023/01/19 00:36:41;;;;;;;1.53;1.43;;;;;;;-0.16;88.78;98894.84;5069257;28;20174;-72
2023/01/19 00:39:06;;;;;;;9.30;3.17;;;;;;;-0.23;88.89;98903.22;5070470;28;20174;-73
2023/01/19 00:44:16;;;;;;;1.40;1.30;;;;;;;-0.22;88.69;98904.84;5070254;28;20165;-73
2023/01/19 00:46:41;;;;;;;0.63;0.63;;;;;;;-0.26;88.85;98898.44;5070450;28;20249;-72
2023/01/19 00:49:06;;;;;;;0.20;0.20;;;;;;;-0.21;89.05;98890.34;5070376;28;20224;-73
2023/01/19 00:51:32;;;;;;;2.13;2.03;;;;;;;-0.23;88.91;98899.75;5069277;28;20177;-73
2023/01/19 00:54:03;;;;;;;1.83;1.70;;;;;;;-0.17;88.58;98888.69;5070271;28;20223;-72
2023/01/19 00:56:29;;;;;;;2.83;2.63;;;;;;;-0.13;88.18;98884.38;5069170;28;20767;-72
2023/01/19 00:58:54;;;;;;;1.20;1.17;;;;;;;-0.11;88.18;98892.97;5070506;28;20771;-72
2023/01/19 01:01:19;;;;;;;1.30;1.20;;;;;;;-0.09;88.40;98882.75;5070304;28;20263;-73
2023/01/19 01:03:44;;;;;;;4.73;3.70;;;;;;;-0.09;88.43;98896.16;5069994;28;20666;-73
2023/01/19 01:06:10;;;;;;;2.47;1.07;;;;;;;-0.08;88.07;98886.22;5070197;28;20183;-72
2023/01/19 01:08:35;;;;;;;1.27;1.27;;;;;;;-0.12;88.33;98895.94;5070250;28;20174;-72
2023/01/19 01:11:00;;;;;;;4.53;4.17;;;;;;;-0.12;87.77;98891.34;5070319;28;20289;-72
2023/01/19 01:13:26;;;;;;;3.03;1.27;;;;;;;-0.11;87.86;98882.22;5069999;28;20222;-72
2023/01/19 01:15:53;;;;;;;2.67;2.57;;;;;;;-0.13;87.57;98880.91;5070256;28;20668;-72
2023/01/19 01:18:19;;;;;;;2.80;2.57;;;;;;;-0.14;87.95;98885.47;5070092;28;20205;-73
2023/01/19 01:20:45;;;;;;;3.60;3.37;;;;;;;-0.08;87.93;98891.59;5070195;28;20420;-73
2023/01/19 01:23:11;;;;;;;4.47;3.73;;;;;;;-0.08;88.01;98899.66;5069851;28;20421;-72
2023/01/19 01:25:37;;;;;;;3.53;2.30;;;;;;;-0.07;87.75;98902.03;5070310;28;20218;-73
2023/01/19 01:28:05;;;;;;;2.90;2.70;;;;;;;-0.12;87.76;98899.41;5070025;28;20793;-72
2023/01/19 01:30:31;;;;;;;3.00;2.80;;;;;;;-0.08;87.46;98891.59;5073789;28;20413;-72
2023/01/19 01:32:56;;;;;;;1.43;1.33;;;;;;;-0.10;87.38;98891.06;5073912;28;20452;-73
2023/01/19 01:35:22;;;;;;;8.13;3.67;;;;;;;-0.14;88.14;98885.47;5073646;28;20185;-72
2023/01/19 01:37:47;;;;;;;3.83;3.43;;;;;;;-0.13;87.94;98902.38;5073630;28;20175;-73
2023/01/19 01:40:16;;;;;;;4.67;3.23;;;;;;;-0.04;88.02;98896.09;5073737;28;20189;-72
2023/01/19 01:42:42;;;;;;;4.00;3.70;;;;;;;-0.05;88.17;98899.06;5073702;28;20539;-72
2023/01/19 01:45:29;;;;;;;6.17;3.67;;;;;;;-0.03;87.54;98891.53;5072146;28;20432;-72
2023/01/19 01:48:01;;;;;;;3.27;2.47;;;;;;;-0.04;88.02;98898.78;5073309;28;20373;-73
2023/01/19 01:50:28;;;;;;;7.40;3.40;;;;;;;0.02;87.89;98880.78;5073693;28;20397;-72
2023/01/19 01:53:13;;;;;;;3.70;3.33;;;;;;;0.07;87.88;98898.72;5073028;28;20444;-72
2023/01/19 01:55:46;;;;;;;2.80;2.33;;;;;;;0.11;87.94;98894.41;5073490;28;20404;-73
2023/01/19 01:58:13;;;;;;;3.20;1.80;;;;;;;0.09;87.64;98897.34;5073623;28;20769;-73
2023/01/19 02:03:24;;;;;;;1.97;1.87;;;;;;;0.06;88.09;98889.88;5072954;28;20220;-73
2023/01/19 02:05:50;;;;;;;3.13;2.63;;;;;;;0.08;87.75;98889.59;5072921;28;20433;-72
2023/01/19 02:14:17;;;;;;;4.87;3.17;;;;;;;0.14;88.76;98896.50;5073198;28;20536;-72
2023/01/19 02:16:43;;;;;;;4.13;2.50;;;;;;;0.10;88.69;98893.59;5073200;28;20417;-73
2023/01/19 02:19:15;;;;;;;13.20;1.90;;;;;;;0.14;88.46;98889.25;5072864;28;20177;-73
2023/01/19 02:21:51;;;;;;;3.37;2.70;;;;;;;0.15;88.24;98884.72;5073029;28;20246;-73
2023/01/19 02:24:17;;;;;;;7.00;4.17;;;;;;;0.15;88.01;98874.78;5072580;28;20420;-72
2023/01/19 02:26:45;;;;;;;3.03;2.57;;;;;;;0.23;87.70;98889.47;5073184;28;20175;-73
2023/01/19 02:29:14;;;;;;;3.00;2.80;;;;;;;0.22;87.77;98887.88;5072568;28;20436;-73
2023/01/19 02:31:40;;;;;;;2.17;1.77;;;;;;;0.19;87.98;98885.75;5072710;28;20635;-73
2023/01/19 02:34:11;;;;;;;2.43;2.23;;;;;;;0.20;87.79;98881.97;5072402;28;20472;-73
2023/01/19 02:36:41;;;;;;;3.73;2.93;;;;;;;0.13;87.78;98882.28;5072589;28;20189;-73
2023/01/19 02:39:08;;;;;;;2.50;2.30;;;;;;;0.13;87.63;98881.47;5072482;28;20647;-73
2023/01/19 02:41:41;;;;;;;2.83;2.63;;;;;;;0.12;87.75;98880.69;5071708;28;20421;-73
2023/01/19 02:44:09;;;;;;;1.57;1.47;;;;;;;0.11;88.30;98891.72;5072247;28;20401;-73
2023/01/19 02:46:35;;;;;;;1.67;1.57;;;;;;;0.09;88.50;98894.69;5072641;28;20243;-72
2023/01/19 02:49:00;;;;;;;0.53;0.53;;;;;;;0.15;88.51;98895.44;5072349;28;21077;-73
2023/01/19 02:51:27;;;;;;;17.20;1.70;;;;;;;0.11;88.53;98907.81;5072179;28;20183;-73
2023/01/19 02:53:59;;;;;;;1.93;1.83;;;;;;;0.18;88.07;98911.78;5071988;28;20693;-72
2023/01/19 02:56:33;;;;;;;1.73;1.63;;;;;;;0.17;88.27;98902.13;5070877;28;20610;-73
2023/01/19 02:59:12;;;;;;;2.03;1.90;;;;;;;0.16;88.50;98897.06;5072185;28;20418;-73
2023/01/19 03:01:54;;;;;;;2.77;2.50;;;;;;;0.14;88.17;98899.19;5071855;28;20412;-72
2023/01/19 03:04:32;;;;;;;2.67;2.23;;;;;;;0.17;88.37;98899.47;5071825;28;20178;-76
2023/01/19 03:07:30;;;;;;;3.30;3.00;;;;;;;0.15;88.25;98903.50;5072010;28;20243;-76
2023/01/19 03:10:06;;;;;;;0.50;0.50;;;;;;;0.13;88.46;98909.13;5037128;28;20798;-77
2023/01/19 03:12:43;;;;;;;1.03;0.93;;;;;;;0.11;88.12;98905.94;5072022;28;20162;-77
2023/01/19 03:16:13;;;;;;;0.10;0.10;;;;;;;-0.07;88.74;98896.69;5070505;28;20428;-78
2023/01/19 03:18:45;;;;;;;5.60;2.80;;;;;;;0.06;89.03;98908.66;5029300;28;20421;-75
2023/01/19 03:21:13;;;;;;;2.03;1.30;;;;;;;0.06;89.16;98905.19;5064528;28;20183;-78
2023/01/19 03:23:43;;;;;;;7.50;2.93;;;;;;;0.13;88.86;98911.03;5071385;28;20905;-76
2023/01/19 03:26:13;;;;;;;1.77;1.67;;;;;;;0.17;89.12;98906.72;5071684;28;20462;-77
2023/01/19 03:28:41;;;;;;;0.60;0.60;;;;;;;0.24;89.14;98905.28;5072020;28;20454;-77
2023/01/19 03:31:14;;;;;;;1.97;1.73;;;;;;;0.26;88.80;98907.69;5071388;28;20173;-79
2023/01/19 03:33:45;;;;;;;0.60;0.60;;;;;;;0.18;88.73;98908.31;5071453;28;20606;-79
2023/01/19 03:36:17;;;;;;;1.97;1.87;;;;;;;0.16;88.93;98900.53;5071544;28;20627;-77
2023/01/19 03:38:47;;;;;;;1.83;1.73;;;;;;;0.20;89.06;98906.16;5071587;28;20177;-79
2023/01/19 03:41:17;;;;;;;4.30;3.60;;;;;;;0.23;89.57;98902.88;5071268;28;20171;-77
2023/01/19 03:43:43;;;;;;;1.43;1.33;;;;;;;0.20;89.11;98914.19;5071018;28;20555;-79
2023/01/19 03:46:11;;;;;;;6.33;3.67;;;;;;;0.24;89.21;98917.91;5071199;28;20409;-76
2023/01/19 03:48:37;;;;;;;1.40;1.23;;;;;;;0.29;89.38;98909.84;5071157;28;20417;-77
2023/01/19 03:51:06;;;;;;;3.03;2.57;;;;;;;0.33;89.48;98916.25;5069702;28;20170;-77
2023/01/19 03:53:32;;;;;;;1.20;1.20;;;;;;;0.43;89.35;98910.75;5070759;28;20453;-79
2023/01/19 03:55:57;;;;;;;1.87;1.77;;;;;;;0.45;88.74;98916.69;5069527;28;20416;-77
2023/01/19 03:58:22;;;;;;;4.27;2.70;;;;;;;0.47;88.85;98908.34;5069748;28;20582;-77
2023/01/19 04:00:47;;;;;;;2.90;2.70;;;;;;;0.49;89.10;98912.34;5071094;28;20705;-77
2023/01/19 04:03:15;;;;;;;0.90;0.87;;;;;;;0.53;88.91;98913.38;5070632;28;20177;-79
2023/01/19 04:05:41;;;;;;;2.93;2.73;;;;;;;0.57;89.03;98911.69;5070559;28;20218;-78
2023/01/19 04:08:07;;;;;;;1.77;1.67;;;;;;;0.59;88.93;98914.13;5070696;28;20266;-78
2023/01/19 04:10:33;;;;;;;0.50;0.50;;;;;;;0.58;88.79;98910.66;5070223;28;20162;-78
2023/01/19 04:12:59;;;;;;;1.67;1.57;;;;;;;0.67;88.28;98902.75;5070308;28;20464;-79
2023/01/19 04:15:25;;;;;;;3.50;3.20;;;;;;;0.63;88.56;98909.78;5070693;28;20190;-77
2023/01/19 04:17:51;;;;;;;2.37;1.97;;;;;;;0.65;88.18;98902.25;5070544;28;20175;-78
2023/01/19 04:20:17;;;;;;;0.57;0.57;;;;;;;0.63;88.04;98903.63;5070660;28;20189;-79
2023/01/19 04:22:42;;;;;;;0.77;0.77;;;;;;;0.61;88.26;98897.72;5070457;28;20181;-79
2023/01/19 04:25:08;;;;;;;1.10;1.00;;;;;;;0.59;88.16;98893.44;5071027;28;20174;-78
2023/01/19 04:27:34;;;;;;;2.97;2.77;;;;;;;0.57;88.32;98892.09;5070430;28;20596;-79
2023/01/19 04:30:00;;;;;;;1.93;1.80;;;;;;;0.52;88.09;98894.84;5070437;28;20421;-78
2023/01/19 04:32:25;;;;;;;0.70;0.67;;;;;;;0.50;88.28;98899.69;5070487;28;20273;-75
2023/01/19 04:34:50;;;;;;;1.33;1.13;;;;;;;0.49;88.45;98896.22;5070577;28;20202;-78
2023/01/19 04:37:16;;;;;;;2.23;2.03;;;;;;;0.49;88.43;98898.91;5070403;28;20204;-78
2023/01/19 04:39:41;;;;;;;0.03;0.03;;;;;;;0.52;88.49;98895.63;5070412;28;20240;-79
2023/01/19 04:42:07;;;;;;;1.57;1.47;;;;;;;0.52;88.89;98895.63;5070649;28;20191;-77
2023/01/19 04:44:32;;;;;;;3.03;2.83;;;;;;;0.53;88.89;98891.88;5068787;28;20589;-76
2023/01/19 04:46:57;;;;;;;1.53;1.43;;;;;;;0.55;88.81;98887.00;5070402;28;20199;-78
2023/01/19 04:49:23;;;;;;;0.50;0.50;;;;;;;0.55;88.48;98886.22;5070237;28;20178;-79
2023/01/19 04:51:48;;;;;;;1.97;1.77;;;;;;;0.57;88.49;98897.47;5070691;28;20179;-78
2023/01/19 04:54:13;;;;;;;2.27;2.17;;;;;;;0.59;88.89;98904.19;5069846;28;20198;-79
2023/01/19 04:56:39;;;;;;;1.10;0.87;;;;;;;0.62;88.64;98883.19;5070145;28;20631;-77
2023/01/19 04:59:05;;;;;;;5.73;1.23;;;;;;;0.63;88.42;98879.44;5070125;28;20205;-77
2023/01/19 05:01:30;;;;;;;3.13;2.83;;;;;;;0.61;87.83;98881.59;5070281;28;20178;-78
2023/01/19 05:03:58;;;;;;;1.73;1.33;;;;;;;0.59;88.11;98879.19;5071228;28;20602;-78
2023/01/19 05:06:23;;;;;;;4.43;3.00;;;;;;;0.59;88.21;98889.94;5073941;28;20462;-78
2023/01/19 05:08:49;;;;;;;1.67;1.57;;;;;;;0.61;88.58;98879.72;5074073;28;20698;-78
2023/01/19 05:11:14;;;;;;;3.03;2.83;;;;;;;0.62;88.38;98881.31;5073875;28;20174;-79
2023/01/19 05:13:40;;;;;;;1.37;1.20;;;;;;;0.67;88.34;98883.94;5073539;28;20202;-78
2023/01/19 05:16:05;;;;;;;1.83;1.73;;;;;;;0.66;88.33;98881.53;5073839;28;20534;-78
2023/01/19 05:18:34;;;;;;;5.80;2.53;;;;;;;0.63;88.72;98898.25;5073811;28;20166;-79
2023/01/19 05:21:01;;;;;;;2.63;1.83;;;;;;;0.67;88.40;98897.38;5073836;28;20166;-78
2023/01/19 05:23:26;;;;;;;3.23;2.93;;;;;;;0.71;88.05;98895.72;5073539;28;20171;-76
2023/01/19 05:25:51;;;;;;;2.70;1.90;;;;;;;0.76;87.85;98902.94;5074158;28;20200;-78
2023/01/19 05:28:17;;;;;;;3.20;2.87;;;;;;;0.74;87.89;98897.06;5073746;28;20171;-77
2023/01/19 05:30:42;;;;;;;9.23;2.67;;;;;;;0.77;88.03;98897.28;5073553;28;20170;-77
2023/01/19 05:33:07;;;;;;;3.07;2.87;;;;;;;0.79;87.78;98902.38;5073343;28;20230;-76
2023/01/19 05:35:33;;;;;;;2.87;2.10;;;;;;;0.83;87.56;98887.25;5073619;28;20174;-77
2023/01/19 05:37:58;;;;;;;3.50;3.20;;;;;;;0.84;87.69;98883.50;5073572;28;20530;-77
2023/01/19 05:40:23;;;;;;;3.63;2.50;;;;;;;0.85;87.42;98890.47;5073341;28;20174;-77
2023/01/19 05:42:49;;;;;;;10.03;3.00;;;;;;;0.86;87.33;98881.31;5073116;28;20231;-76
2023/01/19 05:45:14;;;;;;;4.03;3.33;;;;;;;0.87;87.15;98886.44;5074989;28;20634;-74
2023/01/19 05:47:39;;;;;;;15.87;2.83;;;;;;;0.89;87.12;98892.31;5081003;28;20179;-74
2023/01/19 05:50:05;;;;;;;3.23;2.60;;;;;;;0.91;86.71;98899.28;5074835;28;20205;-74
2023/01/19 05:52:30;;;;;;;1.93;1.83;;;;;;;0.93;86.85;98899.81;5073890;28;20182;-73
2023/01/19 05:54:56;;;;;;;1.97;1.87;;;;;;;0.92;86.70;98899.00;5073100;28;20279;-73
2023/01/19 05:57:21;;;;;;;3.23;2.47;;;;;;;0.92;86.64;98904.38;5073438;28;20186;-73
2023/01/19 05:59:47;;;;;;;2.17;1.97;;;;;;;0.91;86.77;98897.41;5073955;28;20186;-74
2023/01/19 06:02:12;;;;;;;2.80;2.07;;;;;;;0.90;86.73;98895.81;5073225;28;20179;-74
2023/01/19 06:04:38;;;;;;;2.33;2.10;;;;;;;0.92;86.80;98901.69;5072948;28;20174;-74
2023/01/19 06:07:04;;;;;;;3.57;3.27;;;;;;;0.95;86.69;98916.44;5073271;28;20170;-73
2023/01/19 06:09:29;;;;;;;4.07;2.40;;;;;;;0.94;86.59;98909.47;5071815;28;20182;-74
2023/01/19 06:11:56;;;;;;;1.83;1.60;;;;;;;0.95;86.26;98913.75;5072769;28;20417;-73
2023/01/19 06:14:21;;;;;;;3.27;2.97;;;;;;;0.96;86.54;98904.59;5072906;28;20213;-75
2023/01/19 06:16:47;;;;;;;1.60;1.50;;;;;;;0.96;86.24;98910.78;5071696;28;20174;-74
2023/01/19 06:19:12;;;;;;;4.63;1.53;;;;;;;0.95;86.62;98906.50;5072742;28;20550;-73
2023/01/19 06:21:37;;;;;;;3.13;2.83;;;;;;;0.96;86.42;98909.97;5072687;28;20185;-74
2023/01/19 06:24:03;;;;;;;0.10;0.10;;;;;;;0.97;86.27;98907.00;5071074;28;20239;-73
2023/01/19 06:26:28;;;;;;;1.20;1.20;;;;;;;0.99;86.30;98909.41;5072489;28;20657;-74
2023/01/19 06:28:54;;;;;;;0.60;0.60;;;;;;;1.00;86.22;98898.34;5072461;28;20261;-74
2023/01/19 06:31:19;;;;;;;4.00;3.63;;;;;;;1.00;86.11;98906.41;5072532;28;20189;-74
2023/01/19 06:33:45;;;;;;;0.60;0.60;;;;;;;1.00;86.51;98919.06;5072528;28;20237;-74
2023/01/19 06:36:10;;;;;;;0.37;0.37;;;;;;;0.98;86.26;98919.34;5072368;28;20178;-74
2023/01/19 06:38:36;;;;;;;2.93;2.63;;;;;;;0.97;85.91;98923.13;5072464;28;20216;-73
2023/01/19 06:41:04;;;;;;;1.70;1.60;;;;;;;0.96;86.14;98924.22;5072293;28;20179;-74
2023/01/19 06:43:30;;;;;;;0.67;0.67;;;;;;;0.95;86.39;98924.50;5072372;28;20212;-75
2023/01/19 06:45:56;;;;;;;1.70;1.10;;;;;;;0.96;86.23;98931.50;5072293;28;20175;-75
2023/01/19 06:48:21;;;;;;;0.00;0.00;;;;;;;0.91;86.38;98926.97;5072141;28;20179;-74
2023/01/19 06:50:47;;;;;;;1.90;1.80;;;;;;;0.92;86.45;98935.84;5072086;28;20583;-76
2023/01/19 06:53:15;;;;;;;2.60;2.40;;;;;;;0.93;86.19;98938.25;5072223;28;20229;-74
2023/01/19 06:55:41;;;;;;;5.43;1.10;;;;;;;0.94;86.11;98930.97;5071854;28;20167;-74
2023/01/19 06:58:07;;;;;;;1.27;1.10;;;;;;;0.95;86.56;98937.94;5071909;28;20178;-74
2023/01/19 07:00:32;;;;;;;1.43;1.33;;;;;;;0.91;86.58;98936.94;5071896;28;20220;-74
2023/01/19 07:02:58;;;;;;;1.93;1.77;;;;;;;0.93;86.90;98938.25;5071668;28;20565;-74
2023/01/19 07:05:23;;;;;;;0.40;0.40;;;;;;;0.94;86.24;98923.72;5071892;28;20580;-74
2023/01/19 07:07:56;;;;;;;3.83;1.53;;;;;;;0.90;86.27;98938.81;5071224;28;20186;-74
2023/01/19 07:10:23;;;;;;;2.07;1.93;;;;;;;0.91;86.37;98940.41;5071685;28;20190;-74
2023/01/19 07:12:48;;;;;;;1.97;1.87;;;;;;;0.93;86.42;98926.69;5071197;28;20661;-74
2023/01/19 07:15:15;;;;;;;3.63;3.27;;;;;;;0.93;86.37;98942.81;5071624;28;20175;-74
2023/01/19 07:17:41;;;;;;;1.33;1.23;;;;;;;0.91;86.36;98945.00;5071504;28;20220;-74
2023/01/19 07:20:13;;;;;;;1.10;1.03;;;;;;;0.86;86.19;98943.94;5071410;28;20175;-75
2023/01/19 07:22:47;;;;;;;2.23;2.03;;;;;;;0.88;86.52;98944.47;5071165;28;20191;-75
2023/01/19 07:25:13;;;;;;;1.13;0.87;;;;;;;0.84;87.20;98953.38;5071328;28;20177;-74
2023/01/19 07:27:39;;;;;;;0.30;0.30;;;;;;;0.88;87.37;98951.75;5071254;28;20224;-74
2023/01/19 07:30:05;;;;;;;2.23;1.57;;;;;;;0.92;87.34;98954.66;5071616;28;20171;-75
2023/01/19 07:32:31;;;;;;;1.30;1.20;;;;;;;0.93;86.86;98951.69;5069429;28;20182;-75
2023/01/19 07:34:56;;;;;;;2.17;2.00;;;;;;;0.93;86.51;98950.88;5071030;28;20213;-74
2023/01/19 07:37:21;;;;;;;0.20;0.20;;;;;;;0.88;86.48;98957.91;5071046;28;20179;-74
2023/01/19 07:39:46;;;;;;;1.20;1.20;;;;;;;0.86;86.74;98953.88;5070933;28;20397;-75
2023/01/19 07:42:12;;;;;;;0.77;0.57;;;;;;;0.87;86.75;98960.91;5070416;28;20171;-74
2023/01/19 07:44:37;;;;;;;1.60;1.50;;;;;;;0.85;86.53;98968.41;5069737;28;20183;-75
2023/01/19 07:47:06;;;;;;;2.50;2.30;;;;;;;0.79;86.35;98953.44;5071038;28;20181;-80
2023/01/19 07:49:31;;;;;;;0.83;0.83;;;;;;;0.78;87.15;98960.69;5070776;28;20175;-75
2023/01/19 07:51:56;;;;;;;8.90;2.77;;;;;;;0.77;86.65;98966.38;5070903;28;20262;-74
2023/01/19 07:54:22;;;;;;;0.43;0.43;;;;;;;0.75;86.56;98968.53;5070561;28;20202;-74
2023/01/19 07:56:47;;;;;;;1.53;1.43;;;;;;;0.69;86.74;98967.75;5069407;28;20205;-75
2023/01/19 07:59:12;;;;;;;0.67;0.67;;;;;;;0.67;86.78;98969.13;5071005;28;20262;-74
2023/01/19 08:01:38;;;;;;;5.30;2.17;;;;;;;0.71;87.61;98980.91;5069399;28;20178;-75
2023/01/19 08:04:03;;;;;;;1.40;1.30;;;;;;;0.74;87.13;98977.69;5070367;28;20232;-73
2023/01/19 08:06:33;;;;;;;1.83;1.57;;;;;;;0.71;87.20;98979.03;5070362;28;20190;-77
2023/01/19 08:08:59;;;;;;;1.47;1.37;;;;;;;0.68;87.50;98978.81;5069473;28;20332;-86
2023/01/19 08:11:24;;;;;;;3.57;2.43;;;;;;;0.69;87.04;98986.56;5070558;28;20897;-86
2023/01/19 08:13:49;;;;;;;0.77;0.77;;;;;;;0.65;87.04;98982.84;5070254;28;20707;-74
2023/01/19 08:16:15;;;;;;;2.83;2.63;;;;;;;0.62;87.28;98978.06;5069234;28;20179;-84
2023/01/19 08:18:41;;;;;;;2.77;2.17;;;;;;;0.61;87.48;98973.75;5070976;28;20171;-84
2023/01/19 08:21:07;;;;;;;3.77;3.50;;;;;;;0.60;87.27;98966.78;5070603;28;20530;-84
2023/01/19 08:23:32;;;;;;;4.77;2.70;;;;;;;0.63;87.73;98979.66;5068883;28;20193;-82
2023/01/19 08:25:57;;;;;;;3.30;2.67;;;;;;;0.66;87.04;98973.72;5070211;28;20174;-86
2023/01/19 08:28:23;;;;;;;3.10;2.90;;;;;;;0.70;87.36;98976.63;5070496;28;20530;-85
2023/01/19 08:30:53;;;;;;;4.83;2.43;;;;;;;0.74;87.40;98983.06;5070708;28;20253;-81
2023/01/19 08:33:24;;;;;;;5.50;5.00;;;;;;;0.83;87.14;98984.84;5070085;28;20541;-88
2023/01/19 08:35:52;;;;;;;3.20;2.47;;;;;;;0.92;86.84;98978.84;5070379;28;20399;-82
2023/01/19 08:38:18;;;;;;;3.70;3.37;;;;;;;0.98;86.55;98983.09;5068114;28;20449;-85
2023/01/19 08:40:44;;;;;;;3.20;2.67;;;;;;;1.04;86.14;98977.38;5070254;28;20441;-81
2023/01/19 08:43:12;;;;;;;1.80;1.70;;;;;;;1.07;86.18;98971.44;5069974;28;20200;-82
2023/01/19 08:45:46;;;;;;;3.17;2.90;;;;;;;1.09;86.08;98973.84;5068852;28;20185;-79
2023/01/19 08:48:13;;;;;;;3.03;2.33;;;;;;;1.05;85.76;98970.13;5070243;28;20459;-80
2023/01/19 08:50:38;;;;;;;1.20;1.00;;;;;;;1.07;85.99;98979.50;5070439;28;20416;-84
2023/01/19 08:53:07;;;;;;;0.07;0.07;;;;;;;1.11;85.75;98983.22;5069832;28;20542;-82
2023/01/19 08:55:36;;;;;;;3.40;3.10;;;;;;;1.13;85.64;98993.69;5070007;28;20726;-82
2023/01/19 08:58:03;;;;;;;3.23;1.97;;;;;;;1.11;85.82;98993.97;5070120;28;20487;-84
2023/01/19 09:00:30;;;;;;;1.43;1.33;;;;;;;1.16;85.71;99002.00;5069965;28;20179;-82
2023/01/19 09:02:56;;;;;;;0.07;0.07;;;;;;;1.22;85.75;99007.31;5069687;28;20412;-78
2023/01/19 09:05:21;;;;;;;3.73;3.27;;;;;;;1.25;85.82;99012.13;5070044;28;20213;-76
2023/01/19 09:07:47;;;;;;;1.20;1.10;;;;;;;1.29;85.71;99013.16;5069796;28;20179;-77
2023/01/19 09:10:13;;;;;;;1.70;1.63;;;;;;;1.28;85.59;99011.56;5070011;28;20179;-76
2023/01/19 09:12:39;;;;;;;7.30;4.20;;;;;;;1.25;85.47;99010.25;5069357;28;20182;-77
2023/01/19 09:15:05;;;;;;;5.20;4.70;;;;;;;1.21;85.62;99011.09;5070186;28;20263;-77
2023/01/19 09:17:30;;;;;;;2.13;1.93;;;;;;;1.22;85.87;99020.78;5068464;28;20240;-77
2023/01/19 09:19:55;;;;;;;2.47;2.30;;;;;;;1.17;86.11;99011.69;5069942;28;20257;-77
2023/01/19 09:22:21;;;;;;;3.37;3.07;;;;;;;1.18;86.47;99015.97;5068629;28;20202;-78
2023/01/19 09:24:46;;;;;;;4.87;4.47;;;;;;;1.17;86.31;99017.06;5068122;28;20174;-76
2023/01/19 09:27:11;;;;;;;5.70;4.87;;;;;;;1.17;86.66;99002.81;5069714;28;20178;-75
2023/01/19 09:29:36;;;;;;;4.53;3.20;;;;;;;1.18;86.98;99005.22;5069715;28;20171;-77
2023/01/19 09:32:02;;;;;;;3.20;2.90;;;;;;;1.18;87.02;99010.59;5068530;28;20239;-75
2023/01/19 09:34:27;;;;;;;7.37;4.17;;;;;;;1.12;87.21;99013.59;5069311;28;20897;-76
2023/01/19 09:36:53;;;;;;;2.80;2.40;;;;;;;1.09;87.44;99017.66;5069582;28;20214;-77
2023/01/19 09:39:18;;;;;;;0.90;0.90;;;;;;;1.09;87.98;99023.03;5068843;28;20196;-76
2023/01/19 09:42:24;;;;;;;4.53;3.80;;;;;;;1.12;88.14;99027.03;5068953;28;20399;-76
2023/01/19 09:44:52;;;;;;;3.70;3.40;;;;;;;1.08;88.64;99032.19;5053061;28;20194;-76
2023/01/19 09:47:22;;;;;;;0.20;0.20;;;;;;;1.13;88.90;99034.03;5069501;28;20741;-76
2023/01/19 09:49:57;;;;;;;3.77;3.23;;;;;;;1.12;89.67;99043.19;5070432;28;20175;-76
2023/01/19 09:52:22;;;;;;;3.63;3.23;;;;;;;1.11;89.61;99037.00;5072856;28;20182;-76
2023/01/19 09:54:53;;;;;;;2.60;2.23;;;;;;;1.11;89.95;99038.88;5072742;28;20694;-76
2023/01/19 09:57:20;;;;;;;4.90;4.50;;;;;;;1.14;90.31;99041.00;5072842;28;20252;-75
2023/01/19 09:59:49;;;;;;;3.50;3.20;;;;;;;1.13;90.72;99048.28;5071711;28;20178;-76
2023/01/19 10:02:20;;;;;;;2.37;2.23;;;;;;;1.18;91.63;99058.19;5073192;28;20417;-76
2023/01/19 10:04:57;;;;;;;3.23;3.00;;;;;;;1.18;91.52;99058.19;5072512;28;20171;-75
2023/01/19 10:07:30;;;;;;;7.03;6.43;;;;;;;1.12;91.71;99057.44;5072752;28;20171;-77
2023/01/19 10:09:58;;;;;;;3.10;2.90;;;;;;;1.10;91.99;99054.22;5072890;28;20618;-76
2023/01/19 10:12:41;;;;;;;4.50;4.17;;;;;;;1.09;92.57;99052.63;5072765;28;20433;-76
2023/01/19 10:15:45;;;;;;;1.73;1.43;;;;;;;1.05;92.76;99046.22;5072846;28;20234;-76
2023/01/19 10:18:33;;;;;;;3.27;2.97;;;;;;;1.09;93.09;99054.50;5049223;28;20478;-75
2023/01/19 10:21:10;;;;;;;6.07;4.67;;;;;;;1.08;93.50;99066.34;5072860;28;20278;-76
2023/01/19 10:23:47;;;;;;;3.40;2.73;;;;;;;1.11;93.48;99065.78;5072394;28;20187;-75
2023/01/19 10:26:20;;;;;;;3.57;3.00;;;;;;;1.14;93.72;99063.31;5072262;28;20202;-75
2023/01/19 10:28:48;;;;;;;0.93;0.93;;;;;;;1.24;94.14;99067.81;5072378;28;20253;-77
2023/01/19 10:31:17;;;;;;;0.97;0.70;;;;;;;1.26;93.97;99062.16;5072389;28;20178;-76
2023/01/19 10:33:42;;;;;;;2.23;1.43;;;;;;;1.23;93.78;99062.72;5071945;28;20202;-75
2023/01/19 10:36:18;;;;;;;0.90;0.87;;;;;;;1.20;94.06;99058.72;5072211;28;20508;-76
2023/01/19 10:38:45;;;;;;;1.53;1.00;;;;;;;1.26;94.68;99062.94;5072131;28;20170;-76
2023/01/19 10:41:36;;;;;;;1.90;1.63;;;;;;;1.29;94.07;99064.25;5072192;28;20178;-76
2023/01/19 10:44:04;;;;;;;1.30;1.20;;;;;;;1.30;94.31;99066.69;5072155;28;20261;-74
2023/01/19 10:46:32;;;;;;;0.70;0.70;;;;;;;1.29;94.98;99058.88;5072199;28;20178;-76
2023/01/19 10:48:57;;;;;;;3.70;2.73;;;;;;;1.26;95.07;99059.47;5071468;28;20250;-75
2023/01/19 10:51:23;;;;;;;2.47;2.27;;;;;;;1.17;96.00;99059.28;5071959;28;20598;-75
2023/01/19 10:54:00;;;;;;;2.30;2.10;;;;;;;1.15;97.52;99066.81;5071998;28;20729;-75
2023/01/19 10:56:30;;;;;;;1.40;1.30;;;;;;;1.14;98.04;99062.53;5071871;28;20666;-76
2023/01/19 10:58:58;;;;;;;2.47;2.30;;;;;;;1.08;98.77;99069.84;5071812;28;20478;-76
2023/01/19 11:01:26;;;;;;;2.50;2.30;;;;;;;1.09;99.14;99065.28;5071090;28;20409;-75
2023/01/19 11:03:53;;;;;;;2.87;2.60;;;;;;;1.10;99.57;99067.66;5071374;28;21034;-76
2023/01/19 11:06:29;;;;;;;1.90;1.67;;;;;;;1.11;99.93;99066.59;5071370;28;20433;-75
2023/01/19 11:09:18;;;;;;;1.50;1.40;;;;;;;1.09;100.00;99055.31;5070301;28;20963;-74
2023/01/19 11:11:51;;;;;;;3.93;3.63;;;;;;;1.08;100.00;99058.28;5071733;28;20420;-75
2023/01/19 11:14:20;;;;;;;2.53;1.70;;;;;;;1.07;100.00;99052.09;5071172;28;20553;-76
2023/01/19 11:16:49;;;;;;;4.13;3.83;;;;;;;1.11;100.00;99068.47;5069980;28;20508;-75
2023/01/19 11:19:19;;;;;;;2.10;1.90;;;;;;;1.17;100.00;99065.47;5071570;28;20202;-75
2023/01/19 11:21:46;;;;;;;2.60;2.40;;;;;;;1.18;100.00;99059.00;5070230;28;20441;-76
2023/01/19 11:24:13;;;;;;;2.20;2.00;;;;;;;1.24;100.00;99072.41;5071103;28;20188;-75
2023/01/19 11:26:43;;;;;;;1.53;1.43;;;;;;;1.22;100.00;99071.88;5071335;28;20185;-76
2023/01/19 11:29:18;;;;;;;3.00;2.80;;;;;;;1.21;100.00;99064.91;5071130;28;20206;-76
2023/01/19 11:31:44;;;;;;;1.43;1.33;;;;;;;1.22;100.00;99064.59;5071165;28;20182;-75
2023/01/19 11:34:24;;;;;;;3.33;2.80;;;;;;;1.14;100.00;99066.00;5070814;28;20627;-76
2023/01/19 11:36:57;;;;;;;3.53;3.23;;;;;;;1.14;100.00;99073.28;5071060;28;20182;-75
2023/01/19 11:39:26;;;;;;;1.83;1.63;;;;;;;1.17;100.00;99068.16;5071436;28;20174;-75
2023/01/19 11:42:12;;;;;;;2.37;1.87;;;;;;;1.21;100.00;99064.91;5069605;28;20182;-76
2023/01/19 11:45:01;;;;;;;3.57;2.27;;;;;;;1.23;100.00;99068.09;5070888;28;20425;-76
2023/01/19 11:47:32;;;;;;;1.23;1.23;;;;;;;1.18;100.00;99067.06;5070461;28;20555;-76
2023/01/19 11:50:04;;;;;;;2.50;2.30;;;;;;;1.19;100.00;99065.19;5068704;28;20672;-76
2023/01/19 11:52:36;;;;;;;1.37;1.27;;;;;;;1.25;100.00;99071.31;5071051;28;20410;-76
2023/01/19 11:55:49;;;;;;;2.23;2.03;;;;;;;1.25;100.00;99074.81;5070812;28;20464;-76